LFKSLFKJ

Guest
Details From LFKS - Solenzara
To LFKJ - Napoleon Bonaparte
Flight Number -
Tags generated
Created
Modified
Stats Distance 28 nm / 53 km
Max Altitude 300 ft / 91 m
Waypoints 3
Social Downloads 2
Likes 0
Share VATSIM

Download

Looking for another format? Having issues loading an existing format? Contact us
Advertisement - Login to hide

Notes

Basic altitude profile: - Ascent Rate: 2500ft/min - Ascent Speed: 250kts - Cruise Altitude: 35000ft - Cruise Speed: 420kts - Descent Rate: 1500ft/min - Descent Speed: 250kts

Route

LFKS SZA LFKJ

ID Type Via Altitude Latitude Longitude Leg Dist Tot Dist Heading (true) Name
O LFKS APT - 0 ft / 0 m 41.92462˚ 9.40532˚ - 0 nm - Solenzara
SZA VOR - 300 ft / 91 m 41.93747˚ 9.41622˚ 0 nm 0 nm 32° / 32° -
O LFKJ APT - 0 ft / 0 m 41.92289˚ 8.79959˚ 27 nm 28 nm 268° / 268° Napoleon Bonaparte

Altitude Profile

Advertisement - Login to hide

LFKS

Details ICAO LFKS (SOZ)
Name Solenzara
Region France
Timezone Europe/Paris (UTC+1.0)
Stats Elevation 27 ft / 8 m (AMSL)
Location 41.924616° 9.405323°
Runways 1
Magnetic Variation 2.452° E

METAR

LFKS 142100Z AUTO 21004KT 180V250 9999 BKN066 13/06 Q1009

Decode

TAF

TAF LFKS 141626Z 1416/1515 CNL

Decode

Departure Runways

ID Width Length Bearing (true) Bearing (mag) Surface Threshold Offset Overrun Length
18 148 ft / 45 m 8,582 ft / 2,616 m 179.77° 177.32° Concrete 0 ft / 0 m 686 ft / 209 m
36 148 ft / 45 m 8,582 ft / 2,616 m 359.77° 357.32° Concrete 0 ft / 0 m 935 ft / 285 m

LFKJ

Details ICAO LFKJ (AJA)
Name Napoleon Bonaparte
Region France
Timezone Europe/Paris (UTC+1.0)
Stats Elevation 18 ft / 5 m (AMSL)
Location 41.922886° 8.799587°
Runways 2
Magnetic Variation 2.329° E

METAR

LFKJ 142100Z AUTO 05003KT 9999 BKN023 BKN028 OVC034 11/10 Q1012 NOSIG

Decode

TAF

TAF LFKJ 142000Z 1421/1521 05005KT 9999 BKN017 BKN030 TEMPO 1423/1504 22012KT TEMPO 1506/1515 22015G25KT 4000 SHRA BKN014 FEW035TCU OVC040 BECMG 1515/1518 SCT030

Decode

Destination Runways

ID Width Length Bearing (true) Bearing (mag) Surface Threshold Offset Overrun Length
02 180 ft / 55 m 7,899 ft / 2,408 m 24.94° 22.61° Asphalt 0 ft / 0 m 164 ft / 50 m
10 98 ft / 30 m 3,447 ft / 1,051 m 94.35° 92.02° Concrete 0 ft / 0 m 164 ft / 50 m
20 180 ft / 55 m 7,899 ft / 2,408 m 204.95° 202.62° Asphalt 745 ft / 227 m 230 ft / 70 m
28 98 ft / 30 m 3,447 ft / 1,051 m 274.36° 272.03° Concrete 213 ft / 65 m 0 ft / 0 m

Approach Navaids

Runway Type Ident Frequency Range Bearing (true) Bearing (mag) Slope Elevation
02 Localiser AC 110.30 MHz 27 nm / 50 km 24.92° 22.59° - 18 ft / 5 m (AMSL)
02 Glidescope AC 110.30 MHz 27 nm / 50 km 24.92° 22.59° 3.00° 18 ft / 5 m (AMSL)
02 DME AC 110.30 MHz 27 nm / 50 km - - - 18 ft / 5 m (AMSL)

Popular Alternatives